Shu'aiba Airport

IQ-0047 · Basra, 伊拉克

METAR的历史 IQ-0047 · Shu'aiba Airport

下面你可以看到过去几天的METARs。 选择年份以浏览从2007年开始的旧METAR。

2024年5月18日

时间 代码 天气 温度 能见度 天花板 METAR/SPECI
22:00
V
29 °C 10 km+ - 310° 310° 10 kt METAR ORMM 181900Z 31010KT CAVOK 29/10 Q1008 NISIG
21:00
V
31 °C 10 km+ - 310° 310° 10 kt METAR ORMM 181800Z 31010KT CAVOK 31/10 Q1008 NISIG
20:00
V
32 °C 10 km+ - 320° 320° 10 kt METAR ORMM 181700Z 32010KT CAVOK 32/11 Q1008 NISIG
19:15
V
33 °C 10 km+ - 320° 320° 18 kt METAR ORMM 181615Z 32018KT CAVOK 33/10 Q1008 NISIG
17:00
V
36 °C 10 km+ - 320° 320° 20 kt METAR ORMM 181400Z 32020KT CAVOK 36/06 Q1007 NISIG
16:00
V
36 °C 10 km+ - 320° 320° 22 kt METAR ORMM 181300Z 32022KT CAVOK 36/05 Q1008 NOSIG
15:00
V
36 °C 10 km+ - 320° 320° 24 kt METAR ORMM 181200Z 32024KT CAVOK 36/05 Q1008 NOSIG
14:00
V
36 °C 10 km+ - 320° 320° 24 kt METAR ORMM 181100Z 32024KT CAVOK 36/05 Q1009 NOSIG
12:00
V
35 °C 10 km+ - 310° 310° 24 kt METAR ORMM 180900Z 31024KT CAVOK 35/05 Q1010 NOSIG
11:00
M
34 °C 6 km - 320° 320° 24 kt METAR ORMM 180800Z 32024KT 6000 NSC 34/04 Q1011 NOSIG
10:00
I
34 °C 4 km - 320° 320° 24 kt METAR ORMM 180700Z 32024KT 4000 BLDU NSC 34/02 Q1011 NOSIG
09:00
I
32 °C 3,4 km - 340° 340° 20 kt METAR ORMM 180600Z 34020KT 3400 BLDU NSC 32/02 Q1011 NOSIG
08:00
I
31 °C 2 km - 310° 310° 22 kt METAR ORMM 180500Z 31022KT 2000 BLDU NSC 31/04 Q1011 NOSIG
07:00
I
28 °C 2 km - 300° 300° 14 kt METAR ORMM 180400Z 30014KT 2000 DU 28/06 Q1011 NOSIG
06:00
I
25 °C 2 km - 280° 280° 8 kt METAR ORMM 180300Z 28008KT 2000 DU 25/09 Q1011 NOSIG
05:00
I
25 °C 2 km - 330° 330° 6 kt METAR ORMM 180200Z 33006KT 2000 DU NSC 25/09 Q1010 NOSIG
04:00
V
26 °C 10 km+ - 320° 320° 10 kt METAR ORMM 180100Z 32010KT CAVOK 26/10 Q1010 NOSIG
03:00
V
27 °C 10 km+ - 320° 320° 10 kt METAR ORMM 180000Z 32010KT CAVOK 27/10 Q1010 NOSIG
02:00
V
28 °C 10 km+ - 330° 330° 16 kt METAR ORMM 172300Z 33016KT CAVOK 28/09 Q1010 NOSIG
00:00
V
30 °C 10 km+ - 330° 330° 14 kt METAR ORMM 172100Z 33014KT CAVOK 30/11 Q1010 NOSIG

2024年5月17日

时间 代码 天气 温度 能见度 天花板 METAR/SPECI
23:00
V
31 °C 10 km+ - 340° 340° 14 kt METAR ORMM 172000Z 34014KT CAVOK 31/11 Q1010 NOSIG
22:00
V
32 °C 10 km+ - 340° 340° 14 kt METAR ORMM 171900Z 34014KT CAVOK 32/11 Q1010 NOSIG
21:00
V
33 °C 10 km+ - 340° 340° 12 kt METAR ORMM 171800Z 34012KT CAVOK 33/11 Q1009 NOSIG
19:00
V
36 °C 10 km+ - 330° 330° 14 kt METAR ORMM 171600Z 33014KT 9999 FEW040 36/10 Q1008 NOSIG
17:00
V
38 °C 10 km+ - 350° 350° 10 kt METAR ORMM 171400Z 35010KT 9999 FEW040 38/10 Q1008 NOSIG
16:00
V
39 °C 10 km+ - 340° 340° 8 kt METAR ORMM 171300Z 34008KT 9999 SCT040 39/10 Q1008 NOSIG
15:00
V
38 °C 10 km+ - 360° 360° 12 kt METAR ORMM 171200Z 36012KT 9999 FEW040 38/12 Q1008 NOSIG
14:00
V
38 °C 10 km+ - 350° 350° 6 kt METAR ORMM 171100Z 35006KT CAVOK 38/12 Q1009 NOSIG
13:00
V
37 °C 10 km+ - 290° 290° 4 kt METAR ORMM 171000Z 29004KT CAVOK 37/12 Q1010 NOSIG
12:00
V
35 °C 10 km+ - 330° 330° 4 kt METAR ORMM 170900Z 33004KT CAVOK 35/15 Q1010 NOSIG
11:00
V
34 °C 10 km+ - 330° 330° 10 kt METAR ORMM 170800Z 33010KT CAVOK 34/16 Q1011 NOSIG
10:00
V
33 °C 10 km+ - 320° 320° 16 kt METAR ORMM 170700Z 32016KT CAVOK 33/17 Q1011 NOSIG
08:00
V
31 °C 10 km+ - 100° 100° 8 kt METAR ORMM 170500Z 10008KT CAVOK 31/16 Q1010 NOSIG
07:00
V
29 °C 10 km+ - 060° 060° 8 kt METAR ORMM 170400Z 06008KT CAVOK 29/18 Q1010 NOSIG
06:00
V
25 °C 10 km+ - 360° 360° 0 kt METAR ORMM 170300Z 00000KT CAVOK 25/20 Q1009 NOSIG
05:00
V
25 °C 10 km+ - 360° 360° 0 kt METAR ORMM 170200Z 00000KT CAVOK 25/21 Q1009 NOSIG
03:00
V
26 °C 10 km+ - 330° 330° 6 kt METAR ORMM 170000Z 33006KT CAVOK 26/18 Q1009 NOSIG
02:00
V
26 °C 10 km+ - 320° 320° 6 kt METAR ORMM 162300Z 32006KT CAVOK 26/18 Q1008 NOSIG
01:00
V
27 °C 10 km+ - 320° 320° 6 kt METAR ORMM 162200Z 32006KT CAVOK 27/17 Q1008 NOSIG
00:00
V
28 °C 10 km+ - 200° 200° 8 kt METAR ORMM 162100Z 20008KT CAVOK 28/17 Q1009 NOSIG

2024年5月16日

时间 代码 天气 温度 能见度 天花板 METAR/SPECI
22:00
V
30 °C 10 km+ - 150° 150° 8 kt METAR ORMM 161900Z 15008KT CAVOK 30/16 Q1009 NOSIG
21:00
V
31 °C 10 km+ - 130° 130° 8 kt METAR ORMM 161800Z 13008KT CAVOK 31/14 Q1009 NOSIG
20:00
V
33 °C 10 km+ - 130° 130° 10 kt METAR ORMM 161700Z 13010KT CAVOK 33/14 Q1009 NOSIG
19:00
V
34 °C 10 km+ - 110° 110° 14 kt METAR ORMM 161600Z 11014KT CAVOK 34/14 Q1008 NOSIG
18:00
V
35 °C 10 km+ - 110° 110° 14 kt METAR ORMM 161500Z 11014KT CAVOK 35/13 Q1008 NOSIG
16:00
V
39 °C 10 km+ - 120° 120° 14 kt METAR ORMM 161300Z 12014KT CAVOK 39/12 Q1007 NOSIG
15:00
V
39 °C 10 km+ - 150° 150° 14 kt METAR ORMM 161200Z 15014KT CAVOK 39/12 Q1007 NOSIG
14:00
V
38 °C 10 km+ - 150° 150° 12 kt METAR ORMM 161100Z 15012KT CAVOK 38/12 Q1008 NOSIG
13:00
U
0 °C 0 m - 360° 360° 0 kt METAR ORMM 161000Z 1612/1712 12010KT 8000NSC TEMPO 1700/1705 VRB03KT 5000 HZ BECMG 1706/1708 28012KT CAVOK
12:00
V
37 °C 10 km+ - 090° 090° 10 kt METAR ORMM 160900Z 09010KT 9999 FEW040 SCT100 37/11 Q1009 NOSIG
11:00
V
35 °C 10 km+ - 100° 100° 10 kt METAR ORMM 160800Z 10010KT 9999 FEW040 SCT100 35/15 Q1010 NOSIG
09:00
V
32 °C 10 km+ - 080° 080° 10 kt METAR ORMM 160600Z 08010KT 9999 FEW040 SCT100 32/11 Q1010 NOSIG
报告变更